Time;durP1;ratioP1;P1;durP2;ratioP2;P2;SDS_P1;SDS_P2;PMS_P1;PMS_P2;Temp;Humidity;BMP_temperature;BMP_pressure;BME280_temperature;BME280_humidity;BME280_pressure;Samples;Min_cycle;Max_cycle;Signal;HPM_P1;HPM_P2
2022/10/20 00:01:09;;;;;;;18.90;12.32;;;17.10;73.40;;;;;;4984470;28;20044;-79
2022/10/20 00:03:35;;;;;;;15.88;12.15;;;17.20;73.60;;;;;;4980570;28;20053;-78
2022/10/20 00:06:20;;;;;;;16.85;12.45;;;17.20;73.70;;;;;;4986854;28;20026;-78
2022/10/20 00:08:46;;;;;;;18.30;12.15;;;17.20;73.80;;;;;;4993232;28;20042;-79
2022/10/20 00:11:15;;;;;;;14.35;11.38;;;17.20;73.70;;;;;;4968635;28;20060;-80
2022/10/20 00:13:42;;;;;;;13.90;11.27;;;17.20;73.80;;;;;;4986800;28;20034;-79
2022/10/20 00:16:08;;;;;;;17.80;13.20;;;17.30;74.00;;;;;;4985778;28;20030;-79
2022/10/20 00:18:35;;;;;;;17.90;12.20;;;17.30;74.00;;;;;;4981121;28;20044;-79
2022/10/20 00:21:05;;;;;;;16.08;11.60;;;17.20;73.90;;;;;;4984970;28;20046;-80
2022/10/20 00:23:31;;;;;;;13.90;12.10;;;17.30;74.20;;;;;;4983632;28;20038;-80
2022/10/20 00:26:15;;;;;;;15.45;11.95;;;17.30;74.10;;;;;;4986287;28;20038;-78
2022/10/20 00:28:42;;;;;;;15.57;12.40;;;17.30;74.30;;;;;;4984107;28;20186;-77
2022/10/20 00:31:09;;;;;;;19.27;12.48;;;17.30;74.20;;;;;;4988137;28;20043;-78
2022/10/20 00:33:37;;;;;;;16.30;12.40;;;17.30;74.20;;;;;;4983702;28;20027;-79
2022/10/20 00:36:06;;;;;;;16.90;12.50;;;17.30;74.30;;;;;;4983663;28;20033;-79
2022/10/20 00:38:33;;;;;;;19.25;12.88;;;17.30;74.40;;;;;;4987071;28;20034;-78
2022/10/20 00:41:01;;;;;;;15.38;12.38;;;17.30;74.40;;;;;;5002670;28;20073;-78
2022/10/20 00:43:43;;;;;;;13.45;11.32;;;17.30;74.40;;;;;;5000223;28;20073;-79
2022/10/20 00:46:11;;;;;;;15.55;10.65;;;17.30;74.50;;;;;;4998699;28;20029;-79
2022/10/20 00:48:39;;;;;;;12.35;11.05;;;17.30;74.50;;;;;;5009629;28;20050;-78
2022/10/20 00:51:05;;;;;;;15.25;11.52;;;17.30;74.50;;;;;;5011261;28;20088;-78
2022/10/20 00:53:33;;;;;;;14.10;11.77;;;17.30;74.50;;;;;;5012413;28;20034;-78
2022/10/20 00:56:00;;;;;;;13.77;10.88;;;17.30;74.50;;;;;;5012299;28;20226;-80
2022/10/20 00:58:27;;;;;;;12.32;11.05;;;17.30;74.60;;;;;;5009537;28;20093;-80
2022/10/20 01:00:56;;;;;;;16.38;12.60;;;17.40;74.80;;;;;;4996773;28;20289;-79
2022/10/20 01:03:44;;;;;;;13.40;11.82;;;17.40;74.90;;;;;;4974661;28;20517;-78
2022/10/20 01:06:15;;;;;;;16.13;10.65;;;17.40;74.90;;;;;;4990077;28;20517;-79
2022/10/20 01:08:42;;;;;;;16.45;11.32;;;17.40;74.90;;;;;;4989651;28;20027;-79
2022/10/20 01:11:27;;;;;;;15.43;10.25;;;17.40;74.90;;;;;;4991284;28;20042;-79
2022/10/20 01:14:14;;;;;;;18.15;11.88;;;17.40;75.10;;;;;;4990969;28;20053;-79
2022/10/20 01:17:08;;;;;;;14.80;10.20;;;17.50;75.30;;;;;;4984669;28;20049;-79
2022/10/20 01:19:58;;;;;;;12.75;10.57;;;17.50;75.20;;;;;;4990854;28;20440;-79
2022/10/20 01:23:09;;;;;;;15.80;10.73;;;17.50;75.30;;;;;;4984255;28;20030;-79
2022/10/20 01:25:54;;;;;;;15.95;10.98;;;17.50;75.40;;;;;;4984237;28;20050;-78
2022/10/20 01:28:33;;;;;;;17.08;10.50;;;17.50;75.30;;;;;;4990326;28;20038;-80
2022/10/20 01:31:05;;;;;;;13.40;10.60;;;17.50;75.20;;;;;;4983793;28;20162;-79
2022/10/20 01:34:03;;;;;;;17.27;11.73;;;17.50;75.30;;;;;;4986348;28;20509;-79
2022/10/20 01:36:38;;;;;;;16.27;11.32;;;17.50;75.50;;;;;;4975311;28;20583;-78
2022/10/20 01:39:15;;;;;;;14.55;10.60;;;17.50;75.40;;;;;;4988939;28;20477;-78
2022/10/20 01:41:57;;;;;;;12.20;10.30;;;17.50;75.50;;;;;;4987835;28;20044;-79
2022/10/20 01:44:26;;;;;;;13.50;9.98;;;17.50;75.50;;;;;;4988286;28;20030;-80
2022/10/20 01:46:54;;;;;;;18.05;11.73;;;17.60;75.60;;;;;;4990137;28;20035;-79
2022/10/20 01:49:22;;;;;;;12.48;9.00;;;17.50;75.40;;;;;;4974907;28;20117;-79
2022/10/20 01:51:48;;;;;;;13.45;9.65;;;17.50;75.50;;;;;;4974709;28;20046;-79
2022/10/20 01:54:25;;;;;;;15.43;10.52;;;17.50;75.50;;;;;;4993387;28;20053;-79
2022/10/20 01:57:13;;;;;;;11.27;9.40;;;17.50;75.50;;;;;;4985902;28;20042;-79
2022/10/20 01:59:49;;;;;;;18.15;9.20;;;17.50;75.50;;;;;;4991810;28;20040;-80
2022/10/20 02:02:49;;;;;;;12.70;8.73;;;17.50;75.50;;;;;;4989612;28;20656;-79
2022/10/20 02:05:34;;;;;;;13.05;9.38;;;17.50;75.50;;;;;;4983077;28;20509;-79
2022/10/20 02:08:12;;;;;;;13.02;9.02;;;17.50;75.40;;;;;;4992576;28;20026;-78
2022/10/20 02:10:49;;;;;;;11.57;8.68;;;17.50;75.50;;;;;;4993324;28;20046;-78
2022/10/20 02:13:17;;;;;;;15.23;9.65;;;17.50;75.40;;;;;;4987432;28;20031;-78
2022/10/20 02:15:51;;;;;;;13.18;9.27;;;17.50;75.40;;;;;;4993423;28;20421;-78
2022/10/20 02:18:23;;;;;;;10.77;8.75;;;17.50;75.40;;;;;;4988821;28;20029;-79
2022/10/20 02:20:52;;;;;;;12.52;8.80;;;17.50;75.30;;;;;;4987388;28;20031;-79
2022/10/20 02:23:18;;;;;;;15.27;9.88;;;17.50;75.40;;;;;;4988890;28;20521;-78
2022/10/20 02:25:48;;;;;;;10.75;7.97;;;17.50;75.30;;;;;;4993326;28;20022;-78
2022/10/20 02:28:15;;;;;;;8.88;7.25;;;17.50;75.30;;;;;;4991639;28;20528;-78
2022/10/20 02:30:43;;;;;;;12.70;9.48;;;17.60;75.50;;;;;;5002288;28;20046;-78
2022/10/20 02:33:10;;;;;;;11.43;7.80;;;17.50;75.30;;;;;;4990384;28;20446;-78
2022/10/20 02:35:36;;;;;;;12.77;8.23;;;17.50;75.30;;;;;;4990152;28;20042;-78
2022/10/20 02:38:02;;;;;;;11.82;8.38;;;17.50;75.30;;;;;;4992239;28;20029;-77
2022/10/20 02:40:29;;;;;;;12.60;8.40;;;17.50;75.70;;;;;;5007304;28;20494;-78
2022/10/20 02:42:55;;;;;;;12.98;7.97;;;17.50;75.40;;;;;;4991890;28;20029;-79
2022/10/20 02:45:20;;;;;;;12.48;7.80;;;17.50;75.50;;;;;;5007706;28;20038;-79
2022/10/20 02:47:46;;;;;;;10.52;7.55;;;17.50;75.50;;;;;;4994034;28;20062;-77
2022/10/20 02:50:12;;;;;;;11.13;8.35;;;17.50;75.50;;;;;;4991269;28;20289;-78
2022/10/20 02:52:40;;;;;;;12.55;8.07;;;17.40;75.30;;;;;;5000769;28;20304;-77
2022/10/20 02:55:06;;;;;;;9.85;7.55;;;17.40;75.90;;;;;;4992206;28;20442;-78
2022/10/20 02:57:32;;;;;;;10.18;7.60;;;17.50;75.60;;;;;;4990688;28;20033;-78
2022/10/20 02:59:59;;;;;;;10.43;8.10;;;17.40;75.40;;;;;;4993757;28;20035;-78
2022/10/20 03:02:25;;;;;;;10.45;7.60;;;17.40;75.40;;;;;;4996049;28;20060;-79
2022/10/20 03:04:51;;;;;;;10.55;8.05;;;17.40;75.40;;;;;;4988932;28;20033;-79
2022/10/20 03:07:17;;;;;;;12.02;7.75;;;17.40;75.50;;;;;;4991111;28;20112;-80
2022/10/20 03:09:43;;;;;;;11.85;7.68;;;17.40;75.40;;;;;;4972222;28;20022;-79
2022/10/20 03:12:10;;;;;;;14.18;9.57;;;17.40;75.50;;;;;;4990830;28;20045;-79
2022/10/20 03:14:37;;;;;;;9.40;7.55;;;17.40;75.50;;;;;;4993414;28;20072;-78
2022/10/20 03:17:04;;;;;;;11.18;7.28;;;17.40;75.50;;;;;;4997794;28;20046;-77
2022/10/20 03:19:30;;;;;;;11.23;7.70;;;17.40;75.50;;;;;;4994253;28;20022;-78
2022/10/20 03:21:56;;;;;;;10.50;7.10;;;17.40;75.50;;;;;;4981690;28;20026;-78
2022/10/20 03:24:22;;;;;;;9.65;7.03;;;17.40;75.60;;;;;;4998554;28;20066;-78
2022/10/20 03:26:48;;;;;;;10.52;7.10;;;17.30;75.40;;;;;;4996366;28;20026;-78
2022/10/20 03:29:14;;;;;;;10.70;6.47;;;17.40;75.60;;;;;;4995662;28;20030;-77
2022/10/20 03:31:39;;;;;;;10.60;6.93;;;17.30;75.50;;;;;;4990382;28;20158;-78
2022/10/20 03:34:05;;;;;;;11.68;6.65;;;17.30;75.50;;;;;;4994868;28;20088;-78
2022/10/20 03:36:31;;;;;;;11.40;6.10;;;17.30;75.60;;;;;;4991243;28;20026;-78
2022/10/20 03:38:57;;;;;;;14.90;6.50;;;17.30;75.60;;;;;;4990281;28;20143;-78
2022/10/20 03:41:23;;;;;;;12.23;6.68;;;17.30;75.70;;;;;;4989760;28;20030;-77
2022/10/20 03:43:49;;;;;;;13.90;6.15;;;17.30;75.70;;;;;;4988584;28;20106;-78
2022/10/20 03:46:16;;;;;;;16.50;7.70;;;17.30;75.80;;;;;;4989294;28;20042;-78
2022/10/20 03:48:42;;;;;;;8.75;6.43;;;17.20;75.60;;;;;;4988168;28;20034;-80
2022/10/20 03:51:08;;;;;;;17.85;8.00;;;17.20;75.70;;;;;;4986848;28;20046;-78
2022/10/20 03:53:34;;;;;;;10.60;6.53;;;17.20;75.70;;;;;;4966167;28;20045;-80
2022/10/20 03:56:08;;;;;;;14.70;7.05;;;17.20;75.80;;;;;;4989444;28;20115;-77
2022/10/20 03:58:35;;;;;;;10.45;6.20;;;17.10;75.70;;;;;;4994084;28;20038;-79
2022/10/20 04:01:01;;;;;;;11.75;6.85;;;17.10;75.70;;;;;;4988210;28;20029;-78
2022/10/20 04:03:27;;;;;;;13.98;5.35;;;17.10;75.80;;;;;;4989153;28;20023;-79
2022/10/20 04:05:53;;;;;;;9.57;5.32;;;17.10;75.80;;;;;;4988762;28;20040;-79
2022/10/20 04:08:20;;;;;;;13.55;6.75;;;17.10;75.90;;;;;;4989788;28;20216;-79
2022/10/20 04:10:46;;;;;;;13.15;6.65;;;17.10;75.90;;;;;;4988773;28;20053;-79
2022/10/20 04:13:13;;;;;;;14.45;5.63;;;17.10;75.90;;;;;;4982899;28;20490;-79
2022/10/20 04:15:39;;;;;;;11.07;5.88;;;17.10;75.90;;;;;;4979682;28;20089;-79
2022/10/20 04:18:05;;;;;;;10.13;6.88;;;17.10;76.50;;;;;;4983674;28;20037;-79
2022/10/20 04:20:30;;;;;;;13.13;6.68;;;17.10;76.00;;;;;;4983127;28;20394;-79
2022/10/20 04:22:56;;;;;;;9.05;5.97;;;17.10;76.00;;;;;;4987210;28;20180;-79
2022/10/20 04:25:22;;;;;;;14.15;5.97;;;17.10;76.10;;;;;;4993624;28;20029;-78
2022/10/20 04:27:48;;;;;;;11.00;5.55;;;17.10;76.10;;;;;;4989696;28;20042;-79
2022/10/20 04:30:14;;;;;;;10.75;5.15;;;17.00;76.00;;;;;;4993109;28;20046;-79
2022/10/20 04:32:40;;;;;;;13.45;5.05;;;17.00;76.00;;;;;;4998447;28;20057;-78
2022/10/20 04:35:06;;;;;;;9.45;5.40;;;17.00;76.00;;;;;;4999057;28;20076;-79
2022/10/20 04:37:32;;;;;;;10.50;4.90;;;17.00;76.10;;;;;;4994264;28;20033;-80
2022/10/20 04:39:58;;;;;;;11.07;5.10;;;17.00;76.10;;;;;;4994121;28;20141;-79
2022/10/20 04:42:24;;;;;;;12.75;5.78;;;16.90;76.10;;;;;;4991934;28;20034;-79
2022/10/20 04:44:50;;;;;;;10.52;5.25;;;16.90;76.10;;;;;;4993619;28;20497;-79
2022/10/20 04:47:16;;;;;;;11.25;5.43;;;16.90;76.10;;;;;;4984565;28;20034;-79
2022/10/20 04:49:45;;;;;;;10.20;5.70;;;16.90;76.20;;;;;;4995530;28;20116;-78
2022/10/20 04:52:11;;;;;;;10.95;5.45;;;16.90;76.20;;;;;;4993786;28;20532;-79
2022/10/20 04:54:38;;;;;;;20.40;6.38;;;16.90;76.20;;;;;;4996319;28;20061;-79
2022/10/20 04:57:05;;;;;;;8.80;4.97;;;16.90;76.30;;;;;;4985658;28;20036;-78
2022/10/20 04:59:31;;;;;;;10.52;5.40;;;16.90;76.40;;;;;;4997842;28;20053;-78
2022/10/20 05:01:57;;;;;;;11.68;6.43;;;16.90;76.40;;;;;;4975544;28;20508;-78
2022/10/20 05:04:24;;;;;;;15.13;6.28;;;16.90;76.40;;;;;;4990533;28;20030;-77
2022/10/20 05:06:51;;;;;;;13.32;6.03;;;16.90;76.50;;;;;;4990409;28;20037;-77
2022/10/20 05:09:17;;;;;;;13.00;6.60;;;16.90;76.50;;;;;;4996613;28;20026;-79
2022/10/20 05:11:43;;;;;;;12.00;5.30;;;16.90;76.50;;;;;;4989635;28;20068;-78
2022/10/20 05:14:09;;;;;;;10.55;5.38;;;16.90;76.50;;;;;;4994995;28;20469;-78
2022/10/20 05:16:36;;;;;;;10.88;5.15;;;16.90;76.60;;;;;;4988078;28;20018;-81
2022/10/20 05:19:02;;;;;;;8.80;5.05;;;16.90;76.60;;;;;;4996016;28;20130;-84
2022/10/20 05:21:30;;;;;;;11.98;5.25;;;16.90;76.60;;;;;;4987241;28;20032;-83
2022/10/20 05:24:00;;;;;;;18.00;6.20;;;16.80;76.50;;;;;;4988216;28;20031;-82
2022/10/20 05:26:33;;;;;;;11.35;6.47;;;16.80;76.50;;;;;;5000635;28;20030;-84
2022/10/20 05:29:01;;;;;;;12.77;6.50;;;16.80;76.50;;;;;;4996848;28;20049;-82
2022/10/20 05:31:26;;;;;;;15.95;6.03;;;16.80;76.50;;;;;;5018537;28;20037;-84
2022/10/20 05:33:54;;;;;;;9.05;4.30;;;16.80;76.60;;;;;;4991083;28;20038;-84
2022/10/20 05:36:24;;;;;;;10.13;6.10;;;16.70;76.40;;;;;;4989600;28;20042;-84
2022/10/20 05:38:52;;;;;;;14.63;5.65;;;16.80;76.70;;;;;;4988998;28;20026;-86
2022/10/20 05:41:23;;;;;;;12.75;5.07;;;16.70;76.50;;;;;;4989270;28;20038;-85
2022/10/20 05:43:58;;;;;;;16.38;4.80;;;16.70;76.60;;;;;;4984159;28;20532;-88
2022/10/20 05:46:26;;;;;;;12.70;5.15;;;16.70;76.70;;;;;;4989943;28;20034;-81
2022/10/20 05:48:54;;;;;;;9.98;5.15;;;16.70;76.70;;;;;;4983084;28;20045;-81
2022/10/20 05:51:23;;;;;;;10.93;4.38;;;16.70;76.80;;;;;;4952107;28;20485;-80
2022/10/20 05:53:50;;;;;;;10.63;4.50;;;16.70;76.80;;;;;;5001357;28;20437;-81
2022/10/20 05:56:19;;;;;;;9.85;5.35;;;16.70;76.80;;;;;;4989087;28;20512;-80
2022/10/20 05:58:46;;;;;;;8.98;4.72;;;16.70;76.90;;;;;;4999019;28;20022;-79
2022/10/20 06:01:18;;;;;;;10.50;4.85;;;16.70;76.80;;;;;;4985338;28;20026;-79
2022/10/20 06:03:48;;;;;;;11.35;5.18;;;16.70;76.80;;;;;;4989007;28;20030;-91
2022/10/20 06:06:14;;;;;;;10.02;4.47;;;16.70;76.90;;;;;;4990567;28;20782;-83
2022/10/20 06:08:40;;;;;;;13.57;3.90;;;16.60;76.70;;;;;;4990425;28;20038;-84
2022/10/20 06:11:08;;;;;;;10.13;4.07;;;16.60;76.70;;;;;;4988149;28;20053;-82
2022/10/20 06:13:34;;;;;;;10.43;4.80;;;16.60;76.70;;;;;;4989828;28;20031;-83
2022/10/20 06:16:12;;;;;;;12.48;5.15;;;16.60;76.80;;;;;;4990227;28;20023;-82
2022/10/20 06:18:38;;;;;;;10.32;4.82;;;16.60;76.90;;;;;;4991555;28;20030;-81
2022/10/20 06:21:06;;;;;;;10.25;4.72;;;16.50;76.70;;;;;;4984244;28;20034;-82
2022/10/20 06:23:33;;;;;;;10.48;4.43;;;16.50;76.70;;;;;;4987797;28;20027;-83
2022/10/20 06:26:04;;;;;;;11.98;4.65;;;16.50;76.70;;;;;;4988439;28;20506;-81
2022/10/20 06:28:32;;;;;;;10.27;4.78;;;16.50;76.80;;;;;;4992993;28;20266;-82
2022/10/20 06:30:59;;;;;;;10.18;4.15;;;16.50;76.80;;;;;;4994639;28;20037;-82
2022/10/20 06:33:28;;;;;;;11.95;3.53;;;16.50;76.80;;;;;;4982376;28;20186;-81
2022/10/20 06:36:00;;;;;;;11.45;4.43;;;16.50;76.90;;;;;;4976776;28;20040;-82
2022/10/20 06:38:26;;;;;;;11.77;3.55;;;16.50;76.90;;;;;;4989142;28;20030;-83
2022/10/20 06:40:52;;;;;;;11.55;3.97;;;16.40;76.70;;;;;;4991766;28;20033;-83
2022/10/20 06:43:20;;;;;;;10.25;4.10;;;16.40;76.80;;;;;;4981989;28;20036;-83
2022/10/20 06:45:58;;;;;;;5.18;3.35;;;16.40;76.80;;;;;;4982256;28;20030;-83
2022/10/20 06:48:24;;;;;;;15.77;4.63;;;16.40;77.30;;;;;;4983493;28;20480;-83
2022/10/20 06:50:59;;;;;;;14.52;4.88;;;16.30;76.60;;;;;;4985812;28;20060;-83
2022/10/20 06:53:26;;;;;;;6.85;3.20;;;16.30;76.60;;;;;;4987730;28;20038;-84
2022/10/20 06:56:00;;;;;;;13.65;5.07;;;16.30;76.60;;;;;;4971783;28;20038;-84
2022/10/20 06:58:27;;;;;;;10.02;3.08;;;16.30;76.60;;;;;;4989649;28;20038;-82
2022/10/20 07:00:58;;;;;;;9.60;3.00;;;16.30;76.60;;;;;;5008453;28;20080;-82
2022/10/20 07:03:24;;;;;;;11.45;4.50;;;16.30;76.70;;;;;;5007307;28;20234;-81
2022/10/20 07:05:50;;;;;;;9.80;3.88;;;16.20;76.50;;;;;;5008953;28;20030;-82
2022/10/20 07:08:16;;;;;;;7.95;2.45;;;16.20;76.50;;;;;;5004640;28;20095;-82
2022/10/20 07:10:42;;;;;;;11.00;2.60;;;16.20;76.50;;;;;;5010011;28;20041;-82
2022/10/20 07:13:08;;;;;;;7.00;2.83;;;16.20;76.50;;;;;;4991999;28;20057;-81
2022/10/20 07:15:34;;;;;;;10.10;2.65;;;16.20;76.50;;;;;;5009378;28;20064;-82
2022/10/20 07:18:00;;;;;;;7.05;2.70;;;16.20;76.50;;;;;;4999292;28;20038;-81
2022/10/20 07:20:27;;;;;;;6.93;2.90;;;16.20;76.50;;;;;;4990466;28;20030;-87
2022/10/20 07:22:53;;;;;;;6.82;2.10;;;16.20;76.50;;;;;;4972706;28;20030;-80
2022/10/20 07:25:20;;;;;;;10.40;3.05;;;16.20;76.40;;;;;;4987742;28;20069;-79
2022/10/20 07:27:47;;;;;;;7.68;2.20;;;16.20;76.50;;;;;;4988320;28;20034;-79
2022/10/20 07:30:13;;;;;;;6.70;2.50;;;16.20;76.80;;;;;;4972686;28;20477;-85
2022/10/20 07:32:39;;;;;;;5.13;2.72;;;16.20;76.90;;;;;;4987332;28;20050;-82
2022/10/20 07:35:05;;;;;;;6.88;3.00;;;16.20;76.90;;;;;;4987080;28;20092;-82
2022/10/20 07:37:33;;;;;;;5.15;2.13;;;16.20;76.90;;;;;;4988380;28;20033;-82
2022/10/20 07:39:59;;;;;;;7.65;2.42;;;16.20;76.90;;;;;;4977236;28;20038;-84
2022/10/20 07:42:25;;;;;;;7.50;2.40;;;16.20;76.80;;;;;;4988293;28;20027;-82
2022/10/20 07:44:50;;;;;;;5.18;1.90;;;16.20;76.80;;;;;;4983374;28;20023;-80
2022/10/20 07:47:16;;;;;;;7.55;2.20;;;16.10;76.60;;;;;;4969530;28;20027;-79
2022/10/20 07:49:45;;;;;;;10.45;3.20;;;16.20;76.80;;;;;;4991548;28;20386;-84
2022/10/20 07:52:11;;;;;;;4.75;1.90;;;16.20;76.70;;;;;;4978443;28;20089;-84
2022/10/20 07:54:37;;;;;;;9.88;3.00;;;16.20;76.70;;;;;;4988016;28;20018;-81
2022/10/20 07:57:03;;;;;;;11.43;2.35;;;16.20;76.60;;;;;;4986541;28;20031;-81
2022/10/20 07:59:29;;;;;;;6.72;1.80;;;16.20;76.50;;;;;;4994761;28;20038;-78
2022/10/20 08:01:55;;;;;;;8.02;2.20;;;16.20;76.40;;;;;;4984302;28;20033;-81
2022/10/20 08:04:21;;;;;;;7.38;3.20;;;16.20;76.30;;;;;;4975889;28;20027;-80
2022/10/20 08:06:47;;;;;;;4.97;1.88;;;16.30;76.40;;;;;;4981136;28;20038;-80
2022/10/20 08:09:13;;;;;;;5.10;2.20;;;16.30;76.30;;;;;;4980076;28;20045;-80
2022/10/20 08:11:39;;;;;;;4.47;1.60;;;16.30;76.20;;;;;;4987510;28;20042;-79
2022/10/20 08:14:05;;;;;;;8.60;2.42;;;16.40;76.30;;;;;;4988289;28;20027;-88
2022/10/20 08:16:31;;;;;;;8.15;2.25;;;16.40;76.20;;;;;;4986568;28;20029;-82
2022/10/20 08:18:57;;;;;;;6.93;1.85;;;16.40;76.10;;;;;;4990143;28;20333;-86
2022/10/20 08:21:23;;;;;;;6.90;2.00;;;16.50;76.20;;;;;;4982507;28;20498;-83
2022/10/20 08:23:49;;;;;;;6.60;1.90;;;16.60;76.20;;;;;;4982868;28;20124;-83
2022/10/20 08:26:22;;;;;;;6.22;1.80;;;16.70;76.20;;;;;;4985816;28;20060;-83
2022/10/20 08:28:52;;;;;;;6.30;1.90;;;16.80;76.20;;;;;;4997491;28;20030;-84
2022/10/20 08:31:20;;;;;;;6.15;1.70;;;16.90;76.10;;;;;;4985716;28;20424;-85
2022/10/20 08:33:46;;;;;;;6.03;2.03;;;17.00;76.00;;;;;;4985790;28;20541;-83
2022/10/20 08:36:13;;;;;;;9.02;2.65;;;17.10;75.90;;;;;;4975261;28;20719;-82
2022/10/20 08:38:40;;;;;;;5.60;2.22;;;17.20;75.90;;;;;;4987389;28;20064;-82
2022/10/20 08:41:23;;;;;;;5.65;2.30;;;17.30;75.90;;;;;;4982998;28;20022;-82
2022/10/20 08:43:52;;;;;;;7.32;1.88;;;17.40;75.90;;;;;;4987210;28;20061;-79
2022/10/20 08:46:21;;;;;;;6.13;2.10;;;17.40;75.70;;;;;;4988418;28;20034;-80
2022/10/20 08:48:48;;;;;;;7.32;2.38;;;17.40;75.60;;;;;;4987713;28;20477;-84
2022/10/20 08:51:23;;;;;;;4.97;1.77;;;17.50;75.60;;;;;;4978781;28;20585;-82
2022/10/20 08:53:52;;;;;;;6.65;1.83;;;17.60;76.20;;;;;;4988993;28;20030;-79
2022/10/20 08:56:23;;;;;;;6.22;2.50;;;17.70;75.70;;;;;;4988112;28;20042;-80
2022/10/20 08:58:49;;;;;;;7.70;2.00;;;17.70;75.60;;;;;;4993256;28;20038;-80
2022/10/20 09:01:32;;;;;;;5.40;2.15;;;17.80;75.60;;;;;;4985823;28;20045;-79
2022/10/20 09:04:14;;;;;;;6.75;1.90;;;17.90;75.60;;;;;;4988055;28;20030;-80
2022/10/20 09:06:44;;;;;;;11.65;3.28;;;17.90;75.40;;;;;;4984411;28;20050;-79
2022/10/20 09:09:19;;;;;;;4.32;2.00;;;18.00;75.40;;;;;;4984733;28;20029;-78
2022/10/20 09:11:46;;;;;;;7.93;2.38;;;18.10;75.40;;;;;;4986270;28;20564;-79
2022/10/20 09:14:12;;;;;;;4.47;1.65;;;18.10;75.20;;;;;;4981044;28;20027;-79
2022/10/20 09:16:41;;;;;;;6.55;1.67;;;18.20;75.30;;;;;;4965724;28;20038;-79
2022/10/20 09:19:18;;;;;;;6.32;1.75;;;18.20;75.10;;;;;;4985975;28;20022;-79
2022/10/20 09:21:49;;;;;;;8.45;2.85;;;18.30;75.10;;;;;;4974139;28;20040;-82
2022/10/20 09:24:17;;;;;;;6.57;1.85;;;18.40;75.10;;;;;;4990588;28;20057;-82
2022/10/20 09:26:45;;;;;;;7.05;2.53;;;18.40;74.90;;;;;;4986106;28;20034;-81
2022/10/20 09:29:16;;;;;;;4.50;1.95;;;18.50;74.90;;;;;;4977033;28;20038;-83
2022/10/20 09:31:48;;;;;;;4.63;1.45;;;18.60;75.50;;;;;;4988443;28;20043;-83
2022/10/20 09:34:32;;;;;;;8.15;2.92;;;18.70;75.00;;;;;;4992044;28;20569;-82
2022/10/20 09:37:17;;;;;;;5.72;1.70;;;18.80;74.90;;;;;;4990922;28;20046;-82
2022/10/20 09:39:54;;;;;;;5.72;2.00;;;18.90;74.70;;;;;;4972560;28;20241;-82
2022/10/20 09:42:33;;;;;;;4.60;1.67;;;19.10;74.70;;;;;;4991254;28;20019;-82
2022/10/20 09:45:20;;;;;;;7.05;1.70;;;19.20;74.40;;;;;;4982089;28;20041;-82
2022/10/20 09:47:51;;;;;;;4.55;1.70;;;19.40;74.20;;;;;;4988822;28;20031;-83
2022/10/20 09:50:38;;;;;;;6.57;2.03;;;19.60;74.20;;;;;;4989537;28;20042;-82
2022/10/20 09:53:16;;;;;;;5.32;1.75;;;19.70;73.90;;;;;;4988087;28;20560;-81
2022/10/20 09:55:48;;;;;;;4.68;1.83;;;19.80;73.80;;;;;;4986174;28;20740;-83
2022/10/20 09:58:28;;;;;;;6.43;2.22;;;19.90;73.70;;;;;;4991000;28;20027;-82
2022/10/20 10:01:01;;;;;;;6.30;1.92;;;20.00;73.70;;;;;;4981940;28;20034;-83
2022/10/20 10:03:27;;;;;;;5.45;1.88;;;20.00;73.50;;;;;;4985751;28;20038;-82
2022/10/20 10:05:54;;;;;;;13.32;2.85;;;20.10;73.50;;;;;;4988264;28;20034;-82
2022/10/20 10:08:23;;;;;;;6.80;1.98;;;20.10;73.30;;;;;;4983598;28;20036;-82
2022/10/20 10:11:14;;;;;;;5.55;1.20;;;20.20;73.30;;;;;;4985260;28;20101;-82
2022/10/20 10:13:59;;;;;;;5.57;1.60;;;20.30;73.20;;;;;;4985382;28;20332;-81
2022/10/20 10:16:27;;;;;;;5.80;1.45;;;20.30;73.00;;;;;;4980929;28;20038;-81
2022/10/20 10:18:58;;;;;;;5.38;1.10;;;20.40;73.20;;;;;;4977878;28;20057;-82
2022/10/20 10:21:24;;;;;;;3.72;1.92;;;20.40;73.00;;;;;;4981440;28;20018;-82
2022/10/20 10:24:02;;;;;;;9.98;3.15;;;20.40;72.80;;;;;;4985626;28;20049;-82
2022/10/20 10:26:50;;;;;;;6.68;2.10;;;20.50;72.60;;;;;;4965902;28;20035;-81
2022/10/20 10:29:28;;;;;;;4.10;1.50;;;20.50;72.40;;;;;;4995360;28;20034;-83
2022/10/20 10:31:59;;;;;;;5.35;1.90;;;20.50;72.30;;;;;;4983133;28;20471;-81
2022/10/20 10:34:54;;;;;;;6.72;1.50;;;20.60;72.30;;;;;;4984596;28;20104;-83
2022/10/20 10:37:20;;;;;;;4.68;1.33;;;20.60;72.20;;;;;;4986293;28;20038;-83
2022/10/20 10:39:46;;;;;;;4.72;1.58;;;20.60;72.10;;;;;;4993201;28;20042;-87
2022/10/20 10:42:47;;;;;;;6.10;1.85;;;20.70;72.20;;;;;;4987314;28;20027;-80
2022/10/20 10:45:23;;;;;;;5.93;1.40;;;20.60;71.80;;;;;;4978845;28;20026;-84
2022/10/20 10:48:00;;;;;;;5.95;3.28;;;20.60;71.90;;;;;;4984010;28;20043;-85
2022/10/20 10:50:30;;;;;;;5.70;1.35;;;20.70;72.00;;;;;;4993569;28;20122;-85
2022/10/20 10:53:18;;;;;;;5.85;1.60;;;20.80;72.00;;;;;;4988611;28;20038;-85
2022/10/20 10:55:47;;;;;;;5.32;1.60;;;20.90;71.90;;;;;;4985255;28;20049;-84
2022/10/20 10:58:28;;;;;;;7.40;1.50;;;20.90;71.80;;;;;;4969694;28;20044;-84
2022/10/20 11:01:17;;;;;;;6.85;1.38;;;20.90;71.40;;;;;;4977060;28;20038;-89
2022/10/20 11:04:18;;;;;;;4.90;1.88;;;20.90;71.40;;;;;;4982723;28;20614;-90
2022/10/20 11:07:03;;;;;;;8.38;1.70;;;21.00;71.40;;;;;;4987407;28;20072;-85
2022/10/20 11:09:58;;;;;;;6.18;1.50;;;21.00;71.30;;;;;;4986689;28;20032;-84
2022/10/20 11:12:45;;;;;;;7.15;1.58;;;21.00;71.30;;;;;;4973067;28;20128;-85
2022/10/20 11:15:29;;;;;;;8.95;3.15;;;21.00;71.20;;;;;;4992960;28;20030;-92
2022/10/20 11:18:01;;;;;;;4.88;1.70;;;21.10;71.30;;;;;;4987241;28;20033;-90
2022/10/20 11:20:51;;;;;;;5.25;1.83;;;21.00;71.00;;;;;;4982314;28;20173;-84
2022/10/20 11:23:29;;;;;;;4.28;1.92;;;21.00;70.80;;;;;;4985369;28;20173;-86
2022/10/20 11:26:12;;;;;;;6.25;2.10;;;21.10;71.10;;;;;;4986861;28;20037;-85
2022/10/20 11:28:44;;;;;;;5.43;1.50;;;21.10;71.00;;;;;;4988603;28;20040;-85
2022/10/20 11:31:22;;;;;;;6.15;1.77;;;21.00;70.80;;;;;;4970729;28;20045;-84
2022/10/20 11:33:56;;;;;;;5.32;1.83;;;21.10;70.90;;;;;;4980316;28;20657;-83
2022/10/20 11:36:30;;;;;;;8.68;2.72;;;21.20;71.00;;;;;;4988541;28;20035;-85
2022/10/20 11:38:56;;;;;;;;;;;21.30;71.00;;;;;;4987509;28;20532;-83
2022/10/20 11:41:42;;;;;;;6.82;1.73;;;21.50;71.00;;;;;;4987539;28;19910;-85
2022/10/20 11:44:24;;;;;;;6.80;2.13;;;21.60;71.30;;;;;;5001600;28;20038;-84
2022/10/20 11:47:17;;;;;;;8.35;2.58;;;21.80;70.50;;;;;;4987243;28;20494;-85
2022/10/20 11:49:44;;;;;;;5.05;1.90;;;21.80;70.20;;;;;;4979986;28;20406;-86
2022/10/20 11:52:31;;;;;;;10.10;2.85;;;21.90;70.40;;;;;;4970746;28;20557;-88
2022/10/20 11:55:09;;;;;;;10.38;3.28;;;21.90;70.30;;;;;;4967815;28;20035;-87
2022/10/20 11:58:13;;;;;;;6.25;1.88;;;22.00;70.40;;;;;;4985994;28;20031;-86
2022/10/20 12:01:09;;;;;;;6.85;1.55;;;22.00;70.20;;;;;;4975978;28;20452;-85
2022/10/20 12:04:06;;;;;;;5.80;2.05;;;22.00;70.20;;;;;;4975526;28;20035;-85
2022/10/20 12:06:39;;;;;;;8.32;2.67;;;21.90;70.00;;;;;;4981677;28;20314;-88
2022/10/20 12:09:57;;;;;;;7.10;2.35;;;21.90;70.10;;;;;;4978486;28;20034;-86
2022/10/20 12:12:52;;;;;;;4.68;1.65;;;21.90;69.80;;;;;;4996494;28;20092;-88
2022/10/20 12:15:24;;;;;;;7.55;2.35;;;22.00;69.80;;;;;;4987427;28;20036;-87
2022/10/20 12:17:52;;;;;;;4.82;1.75;;;21.90;69.70;;;;;;4969943;28;20035;-84
2022/10/20 12:20:21;;;;;;;7.22;2.65;;;21.90;69.80;;;;;;4984807;28;20036;-90
2022/10/20 12:22:53;;;;;;;6.60;2.45;;;21.80;69.50;;;;;;4982669;28;20042;-81
2022/10/20 12:25:25;;;;;;;3.78;2.03;;;21.80;69.40;;;;;;4991818;28;20022;-83
2022/10/20 12:28:19;;;;;;;5.93;2.47;;;21.80;69.40;;;;;;4986810;28;20037;-95
2022/10/20 12:31:03;;;;;;;5.57;2.20;;;21.80;69.40;;;;;;4987414;28;20035;-93
2022/10/20 12:33:59;;;;;;;7.55;3.10;;;21.70;69.30;;;;;;4990083;28;20034;-94
2022/10/20 12:36:36;;;;;;;4.57;1.88;;;21.60;69.20;;;;;;4988479;28;20023;-94
2022/10/20 12:39:14;;;;;;;3.42;1.50;;;21.60;69.30;;;;;;4990325;28;20038;-91
2022/10/20 12:42:01;;;;;;;4.95;2.25;;;21.60;69.30;;;;;;4981931;28;20033;-87
2022/10/20 12:44:39;;;;;;;4.20;1.88;;;21.60;69.20;;;;;;4988112;28;20092;-87
2022/10/20 12:47:07;;;;;;;5.88;2.15;;;21.70;69.40;;;;;;4988623;28;20026;-92
2022/10/20 12:49:36;;;;;;;5.85;2.15;;;21.70;69.30;;;;;;4991386;28;20038;-86
2022/10/20 12:52:06;;;;;;;6.95;2.25;;;21.80;69.30;;;;;;4986121;28;20070;-83
2022/10/20 12:54:34;;;;;;;5.28;2.20;;;21.80;69.10;;;;;;4973628;28;20026;-85
2022/10/20 12:57:25;;;;;;;3.00;1.58;;;21.90;69.10;;;;;;4990502;28;20030;-82
2022/10/20 12:59:51;;;;;;;7.82;2.38;;;22.00;69.10;;;;;;4986423;28;20035;-82
2022/10/20 13:02:17;;;;;;;3.95;1.63;;;22.00;69.00;;;;;;4984714;28;20481;-82
2022/10/20 13:05:05;;;;;;;5.55;1.98;;;22.10;68.90;;;;;;4980784;28;20026;-81